createdAt,value
2017-11-23T00:00:28.848Z,7.86
2017-11-23T00:01:38.643Z,7.86
2017-11-23T00:02:48.444Z,7.82
2017-11-23T00:03:58.255Z,7.83
2017-11-23T00:05:08.339Z,7.85
2017-11-23T00:06:18.403Z,7.82
2017-11-23T00:07:28.458Z,7.88
2017-11-23T00:08:38.251Z,7.86
2017-11-23T00:09:48.099Z,7.74
2017-11-23T00:10:57.906Z,7.73
2017-11-23T00:12:07.455Z,7.75
2017-11-23T00:13:17.525Z,7.71
2017-11-23T00:14:27.333Z,7.71
2017-11-23T00:15:37.388Z,7.77
2017-11-23T00:16:47.187Z,7.77
2017-11-23T00:17:56.994Z,7.68
2017-11-23T00:19:07.073Z,7.74
2017-11-23T00:20:17.182Z,7.71
2017-11-23T00:21:26.788Z,7.73
2017-11-23T00:22:36.596Z,7.74
2017-11-23T00:23:46.401Z,7.68
2017-11-23T00:24:56.485Z,7.64
2017-11-23T00:26:06.568Z,7.63
2017-11-23T00:27:16.662Z,7.59
2017-11-23T00:28:26.729Z,7.63
2017-11-23T00:29:36.516Z,7.56
2017-11-23T00:30:46.072Z,7.59
2017-11-23T00:31:56.160Z,7.61
2017-11-23T00:33:05.435Z,7.52
2017-11-23T00:34:15.507Z,7.56
2017-11-23T00:35:25.588Z,7.56
2017-11-23T00:36:34.870Z,7.56
2017-11-23T00:37:44.941Z,7.52
2017-11-23T00:38:54.970Z,7.61
2017-11-23T00:40:05.061Z,7.56
2017-11-23T00:41:14.870Z,7.56
2017-11-23T00:42:37.710Z,7.51
2017-11-23T00:43:47.510Z,7.52
2017-11-23T00:44:57.599Z,7.52
2017-11-23T00:46:07.421Z,7.49
2017-11-23T00:47:17.234Z,7.51
2017-11-23T00:48:27.371Z,7.56
2017-11-23T00:49:37.516Z,7.49
2017-11-23T00:50:47.346Z,7.54
2017-11-23T00:51:57.424Z,7.55
2017-11-23T00:53:07.221Z,7.45
2017-11-23T00:54:17.036Z,7.48
2017-11-23T00:55:26.855Z,7.39
2017-11-23T00:56:36.440Z,7.52
2017-11-23T00:57:46.257Z,7.51
2017-11-23T00:58:56.345Z,7.49
2017-11-23T01:00:06.428Z,7.41
2017-11-23T01:01:16.288Z,7.3
2017-11-23T01:02:26.098Z,7.34
2017-11-23T01:03:36.172Z,7.34
2017-11-23T01:04:46.244Z,7.29
2017-11-23T01:05:56.315Z,7.34
2017-11-23T01:07:06.378Z,7.33
2017-11-23T01:08:16.126Z,7.33
2017-11-23T01:09:26.201Z,7.26
2017-11-23T01:10:35.483Z,7.37
2017-11-23T01:11:45.032Z,7.26
2017-11-23T01:12:54.849Z,7.26
2017-11-23T01:14:04.915Z,7.21
2017-11-23T01:15:15.001Z,7.18
2017-11-23T01:16:25.100Z,7.22
2017-11-23T01:17:35.178Z,7.19
2017-11-23T01:18:44.770Z,7.23
2017-11-23T01:19:54.838Z,7.21
2017-11-23T01:21:04.903Z,7.15
2017-11-23T01:22:14.972Z,7.21
2017-11-23T01:23:24.772Z,7.13
2017-11-23T01:24:34.332Z,7.04
2017-11-23T01:25:44.420Z,7.19
2017-11-23T01:26:53.697Z,7.09
2017-11-23T01:28:03.770Z,7.08
2017-11-23T01:29:13.841Z,7.01
2017-11-23T01:30:23.985Z,6.93
2017-11-23T01:31:34.050Z,7.01
2017-11-23T01:32:43.591Z,6.95
2017-11-23T01:33:53.881Z,6.94
2017-11-23T01:35:03.963Z,6.93
2017-11-23T01:36:13.821Z,6.97
2017-11-23T01:37:23.881Z,6.88
2017-11-23T01:38:33.940Z,6.85
2017-11-23T01:39:43.484Z,6.86
2017-11-23T01:40:53.545Z,6.88
2017-11-23T01:42:03.359Z,6.83
2017-11-23T01:43:13.443Z,6.85
2017-11-23T01:44:23.551Z,6.79
2017-11-23T01:45:33.343Z,6.8
2017-11-23T01:46:43.406Z,6.82
2017-11-23T01:47:53.500Z,6.75
2017-11-23T01:49:03.560Z,6.79
2017-11-23T01:50:13.200Z,6.64
2017-11-23T01:51:23.055Z,6.78
2017-11-23T01:52:32.850Z,6.76
2017-11-23T01:53:42.912Z,6.73
2017-11-23T01:54:52.178Z,6.67
2017-11-23T01:56:02.259Z,6.7
2017-11-23T01:57:12.114Z,6.78
2017-11-23T01:58:21.935Z,6.78
2017-11-23T01:59:31.755Z,6.73
2017-11-23T02:00:41.828Z,6.68
2017-11-23T02:01:51.924Z,6.75
2017-11-23T02:03:01.810Z,6.72
2017-11-23T02:04:11.877Z,6.67
2017-11-23T02:05:21.996Z,6.67
2017-11-23T02:06:31.788Z,6.7
2017-11-23T02:07:41.599Z,6.64
2017-11-23T02:08:51.141Z,6.72
2017-11-23T02:10:00.955Z,6.7
2017-11-23T02:11:10.763Z,6.68
2017-11-23T02:12:20.585Z,6.64
2017-11-23T02:13:30.403Z,6.61
2017-11-23T02:14:40.470Z,6.61
2017-11-23T02:15:50.545Z,6.64
2017-11-23T02:17:00.638Z,6.51
2017-11-23T02:18:10.706Z,6.55
2017-11-23T02:19:20.780Z,6.55
2017-11-23T02:20:30.898Z,6.58
2017-11-23T02:21:40.976Z,6.55
2017-11-23T02:22:50.516Z,6.58
2017-11-23T02:24:00.324Z,6.55
2017-11-23T02:25:10.399Z,6.57
2017-11-23T02:26:19.941Z,6.57
2017-11-23T02:27:30.017Z,6.55
2017-11-23T02:28:39.821Z,6.52
2017-11-23T02:29:49.648Z,6.52
2017-11-23T02:30:59.758Z,6.52
2017-11-23T02:32:09.595Z,6.52
2017-11-23T02:33:19.668Z,6.52
2017-11-23T02:34:29.756Z,6.52
2017-11-23T02:35:39.561Z,6.46
2017-11-23T02:36:49.112Z,6.54
2017-11-23T02:37:58.926Z,6.43
2017-11-23T02:39:08.751Z,6.46
2017-11-23T02:40:18.845Z,6.51
2017-11-23T02:41:28.934Z,6.47
2017-11-23T02:42:39.073Z,6.47
2017-11-23T02:43:48.886Z,6.47
2017-11-23T02:44:58.971Z,6.46
2017-11-23T02:46:08.776Z,6.44
2017-11-23T02:47:18.863Z,6.55
2017-11-23T02:48:29.026Z,6.44
2017-11-23T02:49:38.851Z,6.49
2017-11-23T02:50:48.917Z,6.49
2017-11-23T02:51:58.450Z,6.51
2017-11-23T02:53:08.306Z,6.51
2017-11-23T02:54:18.123Z,6.44
2017-11-23T02:55:27.923Z,6.46
2017-11-23T02:56:37.998Z,6.47
2017-11-23T02:57:47.818Z,6.42
2017-11-23T02:58:57.630Z,6.49
2017-11-23T03:00:07.456Z,6.42
2017-11-23T03:01:17.515Z,6.43
2017-11-23T03:02:27.324Z,6.46
2017-11-23T03:34:01.469Z,4.39
2017-11-23T03:35:11.261Z,4.35
2017-11-23T03:36:21.051Z,4.42
2017-11-23T03:37:30.847Z,4.54
2017-11-23T03:38:42.161Z,4.57
2017-11-23T03:39:52.263Z,4.6
2017-11-23T03:41:02.323Z,4.84
2017-11-23T03:42:12.122Z,4.95
2017-11-23T03:43:22.206Z,5.12
2017-11-23T03:44:32.002Z,5.23
2017-11-23T03:45:41.794Z,5.41
2017-11-23T03:46:51.599Z,5.54
2017-11-23T03:48:01.694Z,5.64
2017-11-23T03:49:11.512Z,5.8
2017-11-23T03:50:21.588Z,6
2017-11-23T03:51:31.384Z,6.1
2017-11-23T03:52:41.206Z,6.21
2017-11-23T03:53:50.483Z,6.39
2017-11-23T03:55:01.614Z,6.47
2017-11-23T03:56:11.442Z,6.49
2017-11-23T03:57:21.595Z,6.55
2017-11-23T03:58:31.661Z,6.7
2017-11-23T03:59:41.742Z,6.73
2017-11-23T04:00:51.820Z,6.79
2017-11-23T04:02:02.367Z,6.82
2017-11-23T04:03:12.442Z,6.85
2017-11-23T04:04:21.976Z,6.98
2017-11-23T04:05:32.071Z,6.93
2017-11-23T04:06:41.873Z,6.95
2017-11-23T04:07:51.948Z,6.98
2017-11-23T04:09:02.011Z,7.19
2017-11-23T04:10:11.814Z,7.15
2017-11-23T04:11:21.623Z,7.08
2017-11-23T04:12:31.167Z,7.18
2017-11-23T04:13:40.989Z,7.21
2017-11-23T04:14:51.069Z,7.26
2017-11-23T04:16:00.603Z,7.27
2017-11-23T04:17:10.669Z,7.21
2017-11-23T04:18:20.764Z,7.21
2017-11-23T04:19:31.406Z,7.34
2017-11-23T04:20:41.513Z,7.37
2017-11-23T04:21:51.335Z,7.51
2017-11-23T04:23:01.160Z,7.49
2017-11-23T04:24:10.960Z,7.44
2017-11-23T04:25:20.771Z,7.48
2017-11-23T04:26:30.905Z,7.51
2017-11-23T04:27:40.990Z,7.52
2017-11-23T04:28:50.795Z,7.51
2017-11-23T04:30:00.597Z,7.59
2017-11-23T04:31:10.687Z,7.49
2017-11-23T04:32:20.485Z,7.52
2017-11-23T04:33:30.292Z,7.47
2017-11-23T04:34:40.355Z,7.49
2017-11-23T04:35:50.431Z,7.52
2017-11-23T04:37:00.496Z,7.49
2017-11-23T04:38:10.294Z,7.45
2017-11-23T04:39:20.360Z,7.49
2017-11-23T04:40:30.437Z,7.52
2017-11-23T04:41:40.495Z,7.55
2017-11-23T04:42:50.320Z,7.48
2017-11-23T04:44:00.397Z,7.45
2017-11-23T04:45:10.470Z,7.37
2017-11-23T04:46:20.279Z,7.41
2017-11-23T04:47:30.358Z,7.39
2017-11-23T04:48:40.152Z,7.29
2017-11-23T04:49:50.237Z,7.21
2017-11-23T04:51:00.325Z,7.29
2017-11-23T04:52:09.852Z,7.23
2017-11-23T04:53:19.932Z,7.29
2017-11-23T04:54:29.739Z,7.22
2017-11-23T04:55:39.908Z,7.15
2017-11-23T04:56:49.961Z,7.15
2017-11-23T04:58:00.026Z,7.15
2017-11-23T04:59:09.822Z,7.12
2017-11-23T05:00:19.890Z,7.03
2017-11-23T05:01:30.016Z,7.22
2017-11-23T05:02:39.567Z,7.08
2017-11-23T05:03:49.644Z,7.13
2017-11-23T05:04:59.723Z,7.11
2017-11-23T05:06:09.532Z,7.19
2017-11-23T05:07:19.080Z,7.23
2017-11-23T05:08:28.621Z,7.19
2017-11-23T05:09:38.437Z,7.23
2017-11-23T05:10:48.514Z,7.22
2017-11-23T05:11:58.595Z,7.31
2017-11-23T05:13:08.184Z,7.23
2017-11-23T05:14:18.291Z,7.26
2017-11-23T05:15:28.106Z,7.3
2017-11-23T05:16:37.918Z,7.29
2017-11-23T05:17:47.725Z,7.22
2017-11-23T05:18:57.793Z,7.29
2017-11-23T05:20:07.327Z,7.29
2017-11-23T05:21:17.399Z,7.34
2017-11-23T05:22:26.942Z,7.19
2017-11-23T05:23:36.764Z,7.39
2017-11-23T05:24:46.838Z,7.23
2017-11-23T05:25:56.911Z,7.39
2017-11-23T05:27:06.459Z,7.41
2017-11-23T05:28:16.265Z,7.4
2017-11-23T05:29:26.340Z,7.34
2017-11-23T05:30:36.154Z,7.37
2017-11-23T05:31:46.238Z,7.39
2017-11-23T05:32:55.507Z,7.39
2017-11-23T05:34:05.334Z,7.39
2017-11-23T05:35:15.455Z,7.39
2017-11-23T05:36:25.034Z,7.45
2017-11-23T05:37:34.848Z,7.39
2017-11-23T05:38:44.641Z,7.37
2017-11-23T05:39:54.457Z,7.37
2017-11-23T05:41:04.530Z,7.41
2017-11-23T05:42:14.075Z,7.39
2017-11-23T05:43:23.877Z,7.37
2017-11-23T05:44:33.684Z,7.48
2017-11-23T05:45:43.767Z,7.36
2017-11-23T05:46:53.304Z,7.45
2017-11-23T05:48:03.457Z,7.51
2017-11-23T05:49:13.268Z,7.51
2017-11-23T05:50:23.337Z,7.55
2017-11-23T05:51:32.900Z,7.58
2017-11-23T05:52:42.698Z,7.68
2017-11-23T05:53:52.246Z,7.64
2017-11-23T05:55:02.333Z,7.71
2017-11-23T05:56:12.401Z,7.63
2017-11-23T05:57:21.689Z,7.63
2017-11-23T05:58:32.471Z,7.55
2017-11-23T05:59:42.277Z,7.56
2017-11-23T06:00:51.826Z,7.64
2017-11-23T06:02:01.626Z,7.52
2017-11-23T06:03:11.445Z,7.56
2017-11-23T06:04:21.249Z,7.52
2017-11-23T06:05:31.108Z,7.48
2017-11-23T06:06:40.643Z,7.54
2017-11-23T06:07:50.731Z,7.48
2017-11-23T06:09:00.821Z,7.52
2017-11-23T06:10:10.632Z,7.55
2017-11-23T06:11:20.463Z,7.55
2017-11-23T06:12:30.519Z,7.67
2017-11-23T06:13:40.336Z,7.68
2017-11-23T06:14:50.136Z,7.54
2017-11-23T06:15:59.934Z,7.56
2017-11-23T06:17:10.048Z,7.59
2017-11-23T06:18:19.860Z,7.63
2017-11-23T06:19:29.663Z,7.7
2017-11-23T06:20:40.048Z,7.74
2017-11-23T06:21:50.147Z,7.78
2017-11-23T06:23:00.000Z,7.74
2017-11-23T06:24:09.818Z,7.71
2017-11-23T06:25:19.899Z,7.77
2017-11-23T06:26:29.969Z,7.74
2017-11-23T06:27:40.064Z,7.73
2017-11-23T06:28:50.146Z,7.74
2017-11-23T06:29:59.952Z,7.78
2017-11-23T06:31:09.765Z,7.77
2017-11-23T06:32:19.321Z,7.85
2017-11-23T06:33:29.428Z,7.91
2017-11-23T06:34:39.649Z,7.95
2017-11-23T06:35:49.721Z,7.98
2017-11-23T06:36:59.534Z,7.92
2017-11-23T06:38:09.081Z,7.99
2017-11-23T06:39:19.161Z,7.98
2017-11-23T06:40:29.241Z,7.92
2017-11-23T06:41:39.075Z,7.89
2017-11-23T06:42:49.132Z,8.04
2017-11-23T06:43:58.946Z,8.01
2017-11-23T06:45:08.755Z,8.04
2017-11-23T06:46:18.650Z,8.01
2017-11-23T06:47:28.743Z,7.92
2017-11-23T06:48:38.282Z,8.03
2017-11-23T06:49:48.347Z,7.99
2017-11-23T06:50:58.427Z,8.1
2017-11-23T06:52:08.292Z,8.07
2017-11-23T06:53:18.106Z,8.14
2017-11-23T06:54:27.654Z,8.13
2017-11-23T06:55:37.741Z,8.11
2017-11-23T06:56:47.836Z,8.11
2017-11-23T06:57:57.955Z,8.22
2017-11-23T06:59:08.039Z,8.21
2017-11-23T07:00:17.847Z,8.17
2017-11-23T07:01:27.942Z,8.17
2017-11-23T07:02:38.005Z,8.24
2017-11-23T07:03:47.859Z,8.32
2017-11-23T07:04:57.930Z,8.36
2017-11-23T07:06:07.761Z,8.31
2017-11-23T07:07:17.827Z,8.39
2017-11-23T07:08:27.628Z,8.34
2017-11-23T07:09:37.171Z,8.36
2017-11-23T07:10:46.983Z,8.29
2017-11-23T07:11:57.058Z,8.34
2017-11-23T07:13:07.142Z,8.26
2017-11-23T07:14:16.726Z,8.29
2017-11-23T07:15:26.854Z,8.46
2017-11-23T07:16:36.392Z,8.49
2017-11-23T07:17:46.476Z,8.46
2017-11-23T07:18:56.315Z,8.54
2017-11-23T07:20:06.109Z,8.57
2017-11-23T07:21:15.930Z,8.61
2017-11-23T07:22:25.747Z,8.53
2017-11-23T07:23:35.559Z,8.57
2017-11-23T07:24:45.120Z,8.54
2017-11-23T07:25:55.217Z,8.61
2017-11-23T07:27:05.025Z,8.61
2017-11-23T07:28:15.116Z,8.64
2017-11-23T07:29:24.922Z,8.76
2017-11-23T07:30:34.718Z,8.79
2017-11-23T07:31:44.531Z,8.79
2017-11-23T07:32:54.644Z,8.72
2017-11-23T07:34:04.732Z,8.6
2017-11-23T07:35:14.888Z,8.46
2017-11-23T07:36:24.976Z,8.46
2017-11-23T07:37:35.064Z,8.49
2017-11-23T07:38:44.605Z,8.43
2017-11-23T07:39:54.139Z,8.4
2017-11-23T07:41:04.250Z,8.46
2017-11-23T07:42:13.820Z,8.29
2017-11-23T07:43:23.892Z,8.39
2017-11-23T07:44:33.754Z,8.39
2017-11-23T07:45:43.561Z,8.36
2017-11-23T07:46:53.102Z,8.35
2017-11-23T07:48:03.166Z,8.47
2017-11-23T07:49:13.263Z,8.39
2017-11-23T07:50:23.411Z,8.36
2017-11-23T07:51:33.479Z,8.35
2017-11-23T07:52:43.279Z,8.39
2017-11-23T07:53:53.116Z,8.5
2017-11-23T07:55:03.197Z,8.49
2017-11-23T07:56:13.068Z,8.46
2017-11-23T07:57:22.603Z,8.57
2017-11-23T07:58:32.666Z,8.49
2017-11-23T07:59:42.742Z,8.47
2017-11-23T08:00:53.230Z,8.62
2017-11-23T08:02:03.321Z,8.67
2017-11-23T08:03:13.404Z,8.67
2017-11-23T08:04:23.505Z,8.77
2017-11-23T08:05:32.803Z,8.82
2017-11-23T08:06:42.609Z,8.8
2017-11-23T08:07:53.751Z,8.76
2017-11-23T08:09:03.834Z,8.72
2017-11-23T08:10:13.638Z,8.76
2017-11-23T08:11:23.459Z,8.76
2017-11-23T08:12:33.267Z,8.74
2017-11-23T08:13:43.399Z,8.67
2017-11-23T08:14:52.690Z,8.71
2017-11-23T08:16:02.755Z,8.69
2017-11-23T08:17:12.828Z,8.71
2017-11-23T08:18:22.934Z,8.72
2017-11-23T08:19:32.792Z,8.82
2017-11-23T08:20:42.876Z,8.79
2017-11-23T08:21:52.942Z,8.85
2017-11-23T08:23:02.478Z,8.95
2017-11-23T08:24:12.560Z,8.97
2017-11-23T08:25:22.158Z,9.14
2017-11-23T08:26:31.961Z,9.17
2017-11-23T08:27:42.164Z,9.11
2017-11-23T08:28:51.984Z,9.11
2017-11-23T08:30:01.534Z,9.16
2017-11-23T08:31:11.696Z,9.12
2017-11-23T08:32:21.507Z,9.19
2017-11-23T08:33:31.321Z,9.21
2017-11-23T08:34:41.128Z,9.23
2017-11-23T08:35:50.934Z,9.24
2017-11-23T08:37:00.746Z,9.29
2017-11-23T08:38:10.017Z,9.38
2017-11-23T08:39:19.823Z,9.26
2017-11-23T08:40:29.355Z,9.38
2017-11-23T08:41:39.421Z,9.37
2017-11-23T08:42:49.314Z,9.41
2017-11-23T08:43:59.461Z,9.34
2017-11-23T08:45:09.271Z,9.24
2017-11-23T08:46:19.149Z,9.24
2017-11-23T08:47:29.235Z,9.24
2017-11-23T08:48:39.303Z,9.19
2017-11-23T08:49:49.387Z,9.19
2017-11-23T08:50:59.206Z,9.09
2017-11-23T08:52:09.008Z,9.09
2017-11-23T08:53:19.098Z,8.92
2017-11-23T08:54:29.161Z,8.82
2017-11-23T08:55:39.270Z,8.86
2017-11-23T08:56:49.349Z,8.82
2017-11-23T08:57:59.542Z,8.77
2017-11-23T08:59:10.388Z,8.8
2017-11-23T09:00:20.202Z,8.83
2017-11-23T09:01:30.012Z,8.77
2017-11-23T09:02:39.861Z,8.76
2017-11-23T09:03:49.697Z,8.67
2017-11-23T09:04:59.813Z,8.71
2017-11-23T09:06:09.673Z,8.68
2017-11-23T09:07:19.224Z,8.64
2017-11-23T09:08:29.324Z,8.74
2017-11-23T09:09:39.415Z,8.77
2017-11-23T09:10:49.554Z,8.72
2017-11-23T09:11:59.639Z,8.83
2017-11-23T09:13:09.455Z,8.95
2017-11-23T09:14:19.546Z,8.94
2017-11-23T09:15:30.536Z,8.85
2017-11-23T09:16:40.359Z,8.95
2017-11-23T09:17:50.513Z,9
2017-11-23T09:19:00.053Z,8.97
2017-11-23T09:20:09.871Z,8.97
2017-11-23T09:21:19.687Z,8.94
2017-11-23T09:22:29.252Z,8.89
2017-11-23T09:23:39.450Z,9.04
2017-11-23T09:24:49.526Z,9.12
2017-11-23T09:25:59.370Z,9.11
2017-11-23T09:27:09.204Z,9.2
2017-11-23T09:28:19.288Z,9.08
2017-11-23T09:29:29.440Z,9.17
2017-11-23T09:30:39.268Z,9.21
2017-11-23T09:31:49.095Z,9.29
2017-11-23T09:32:59.199Z,9.27
2017-11-23T09:34:09.287Z,9.3
2017-11-23T09:35:19.389Z,9.27
2017-11-23T09:36:29.247Z,9.23
2017-11-23T09:37:39.065Z,9.21
2017-11-23T09:38:49.138Z,9.23
2017-11-23T09:39:59.229Z,9.26
2017-11-23T09:41:09.120Z,9.09
2017-11-23T09:42:18.968Z,9.26
2017-11-23T09:43:29.055Z,9.3
2017-11-23T09:44:39.137Z,9.16
2017-11-23T09:45:48.428Z,9.26
2017-11-23T09:46:58.591Z,9.2
2017-11-23T09:48:08.684Z,9.2
2017-11-23T09:49:18.781Z,9.16
2017-11-23T09:50:28.578Z,9.19
2017-11-23T09:51:38.412Z,9.12
2017-11-23T09:52:48.539Z,9
2017-11-23T09:53:58.645Z,8.98
2017-11-23T09:55:08.760Z,8.89
2017-11-23T09:56:18.883Z,8.89
2017-11-23T09:57:28.725Z,8.94
2017-11-23T09:58:38.602Z,9.04
2017-11-23T09:59:48.412Z,8.98
2017-11-23T10:00:58.496Z,9.05
2017-11-23T10:02:08.585Z,9.04
2017-11-23T10:03:18.678Z,9.04
2017-11-23T10:04:28.845Z,9.03
2017-11-23T10:05:38.923Z,8.97
2017-11-23T10:06:49.004Z,8.97
2017-11-23T10:07:59.072Z,9.05
2017-11-23T10:09:08.640Z,8.98
2017-11-23T10:10:18.772Z,9.11
2017-11-23T10:11:28.618Z,9.09
2017-11-23T10:12:38.472Z,9.05
2017-11-23T10:13:48.294Z,9.05
2017-11-23T10:14:58.116Z,9.08
2017-11-23T10:16:08.194Z,9.01
2017-11-23T10:17:18.325Z,9.12
2017-11-23T10:18:28.429Z,9.17
2017-11-23T10:19:37.964Z,9.12
2017-11-23T10:20:47.244Z,9.16
2017-11-23T10:21:57.066Z,9.01
2017-11-23T10:23:06.892Z,9
2017-11-23T10:24:16.711Z,8.94
2017-11-23T10:25:26.258Z,9
2017-11-23T10:26:36.325Z,9.08
2017-11-23T10:27:46.186Z,9.09
2017-11-23T10:28:56.266Z,9.17
2017-11-23T10:30:06.365Z,9.12
2017-11-23T10:31:16.478Z,9.2
2017-11-23T10:32:26.574Z,9.2
2017-11-23T10:33:36.395Z,9.23
2017-11-23T10:34:46.217Z,9.24
2017-11-23T10:35:56.041Z,9.39
2017-11-23T10:37:06.858Z,9.32
2017-11-23T10:38:16.961Z,9.5
2017-11-23T10:39:27.118Z,9.48
2017-11-23T10:40:36.943Z,9.56
2017-11-23T10:41:46.221Z,9.44
2017-11-23T10:42:56.045Z,9.42
2017-11-23T10:44:05.874Z,9.3
2017-11-23T10:45:16.024Z,9.44
2017-11-23T10:46:26.130Z,9.42
2017-11-23T10:47:35.971Z,9.41
2017-11-23T10:48:45.785Z,9.45
2017-11-23T10:49:55.919Z,9.45
2017-11-23T10:51:06.045Z,9.48
2017-11-23T10:52:16.119Z,9.55
2017-11-23T10:53:26.206Z,9.39
2017-11-23T10:54:36.303Z,9.48
2017-11-23T10:55:46.119Z,9.56
2017-11-23T10:56:55.967Z,9.55
2017-11-23T10:58:05.523Z,9.55
2017-11-23T10:59:15.612Z,9.64
2017-11-23T11:00:25.697Z,9.63
2017-11-23T11:01:35.508Z,9.63
2017-11-23T11:02:45.605Z,9.6
2017-11-23T11:03:55.708Z,9.66
2017-11-23T11:05:05.256Z,9.78
2017-11-23T11:06:15.064Z,9.72
2017-11-23T11:07:24.874Z,9.66
2017-11-23T11:08:34.754Z,9.66
2017-11-23T11:09:44.867Z,9.7
2017-11-23T11:10:54.937Z,9.63
2017-11-23T11:12:04.766Z,9.74
2017-11-23T11:13:14.843Z,9.82
2017-11-23T11:14:24.973Z,9.84
2017-11-23T11:15:34.806Z,9.81
2017-11-23T11:16:44.900Z,9.78
2017-11-23T11:17:54.734Z,9.8
2017-11-23T11:19:04.824Z,9.81
2017-11-23T11:20:14.434Z,9.84
2017-11-23T11:21:24.280Z,9.85
2017-11-23T11:22:34.083Z,9.95
2017-11-23T11:23:43.954Z,9.85
2017-11-23T11:24:54.073Z,9.84
2017-11-23T11:26:04.158Z,9.85
2017-11-23T11:27:14.244Z,9.84
2017-11-23T11:28:24.321Z,9.81
2017-11-23T11:29:34.155Z,9.88
2017-11-23T11:30:44.232Z,9.88
2017-11-23T11:31:54.323Z,9.93
2017-11-23T11:33:04.160Z,9.81
2017-11-23T11:34:13.997Z,9.82
2017-11-23T11:35:23.835Z,9.84
2017-11-23T11:36:33.936Z,9.85
2017-11-23T11:37:44.011Z,9.95
2017-11-23T11:38:53.875Z,9.89
2017-11-23T11:40:03.709Z,9.84
2017-11-23T11:41:13.800Z,9.88
2017-11-23T11:42:23.940Z,9.98
2017-11-23T11:43:33.826Z,10.02
2017-11-23T11:44:43.665Z,10.05
2017-11-23T11:45:53.746Z,10
2017-11-23T11:47:03.561Z,9.99
2017-11-23T11:48:13.663Z,10
2017-11-23T11:49:23.804Z,10.02
2017-11-23T11:50:33.624Z,9.99
2017-11-23T11:51:43.482Z,9.92
2017-11-23T11:52:53.291Z,9.96
2017-11-23T11:54:03.382Z,10
2017-11-23T11:55:13.523Z,10.08
2017-11-23T11:56:23.607Z,10.02
2017-11-23T11:57:33.418Z,10.14
2017-11-23T11:58:43.502Z,10.15
2017-11-23T11:59:53.315Z,10.14
2017-11-23T12:01:02.911Z,10.18
2017-11-23T12:02:12.730Z,10.17
2017-11-23T12:03:22.277Z,10.15
2017-11-23T12:04:32.383Z,10.23
2017-11-23T12:05:42.468Z,10.23
2017-11-23T12:06:52.598Z,10.29
2017-11-23T12:08:02.680Z,10.21
2017-11-23T12:09:12.247Z,10.31
2017-11-23T12:10:22.069Z,10.29
2017-11-23T12:11:32.155Z,10.36
2017-11-23T12:12:42.290Z,10.29
2017-11-23T12:13:52.378Z,10.44
2017-11-23T12:15:02.221Z,10.51
2017-11-23T12:16:12.353Z,10.41
2017-11-23T12:17:22.175Z,10.44
2017-11-23T12:18:32.000Z,10.35
2017-11-23T12:19:42.088Z,10.41
2017-11-23T12:20:51.921Z,10.47
2017-11-23T12:22:01.758Z,10.41
2017-11-23T12:23:11.865Z,10.44
2017-11-23T12:24:21.691Z,10.51
2017-11-23T12:25:31.773Z,10.52
2017-11-23T12:26:41.588Z,10.58
2017-11-23T12:27:51.671Z,10.55
2017-11-23T12:29:01.507Z,10.58
2017-11-23T12:30:11.371Z,10.63
2017-11-23T12:31:21.532Z,10.66
2017-11-23T12:32:31.613Z,10.73
2017-11-23T12:33:41.746Z,10.76
2017-11-23T12:34:51.823Z,10.73
2017-11-23T12:36:01.973Z,10.8
2017-11-23T12:37:11.794Z,10.84
2017-11-23T12:38:21.887Z,11.02
2017-11-23T12:39:31.987Z,11.02
2017-11-23T12:40:42.098Z,11.05
2017-11-23T12:41:51.976Z,11.15
2017-11-23T12:43:01.781Z,11.2
2017-11-23T12:44:11.596Z,11.23
2017-11-23T12:45:21.695Z,11.21
2017-11-23T12:46:31.259Z,11.21
2017-11-23T12:47:41.412Z,11.13
2017-11-23T12:48:51.217Z,11.09
2017-11-23T12:50:02.366Z,11.21
2017-11-23T12:51:12.454Z,11.21
2017-11-23T12:52:22.282Z,11.23
2017-11-23T12:53:32.167Z,11.18
2017-11-23T12:54:42.273Z,11.3
2017-11-23T12:55:52.358Z,11.21
2017-11-23T12:57:02.167Z,11.24
2017-11-23T12:58:11.975Z,11.18
2017-11-23T12:59:21.820Z,11.24
2017-11-23T13:00:31.922Z,11.21
2017-11-23T13:01:41.473Z,11.16
2017-11-23T13:02:51.561Z,11.24
2017-11-23T13:04:01.671Z,11.23
2017-11-23T13:05:11.543Z,11.26
2017-11-23T13:06:21.687Z,11.2
2017-11-23T13:07:31.781Z,11.24
2017-11-23T13:08:41.342Z,11.24
2017-11-23T13:09:51.435Z,11.33
2017-11-23T13:11:01.606Z,11.39
2017-11-23T13:12:11.693Z,11.35
2017-11-23T13:13:21.552Z,11.34
2017-11-23T13:14:31.629Z,11.39
2017-11-23T13:15:41.708Z,11.35
2017-11-23T13:16:51.536Z,11.38
2017-11-23T13:18:01.358Z,11.39
2017-11-23T13:19:11.182Z,11.48
2017-11-23T13:20:21.271Z,11.52
2017-11-23T13:21:31.347Z,11.59
2017-11-23T13:22:40.944Z,11.66
2017-11-23T13:23:50.777Z,11.67
2017-11-23T13:25:00.864Z,11.66
2017-11-23T13:26:10.675Z,11.78
2017-11-23T13:27:20.751Z,11.68
2017-11-23T13:28:31.859Z,11.73
2017-11-23T13:29:42.004Z,11.81
2017-11-23T13:30:52.081Z,11.91
2017-11-23T13:32:01.913Z,12.08
2017-11-23T13:33:11.977Z,11.98
2017-11-23T13:34:22.050Z,11.95
2017-11-23T13:35:32.003Z,11.94
2017-11-23T13:36:42.084Z,11.91
2017-11-23T13:37:52.177Z,11.82
2017-11-23T13:39:02.271Z,11.89
2017-11-23T13:40:11.586Z,11.88
2017-11-23T13:41:21.466Z,11.85
2017-11-23T13:42:30.750Z,11.81
2017-11-23T13:43:40.551Z,11.76
2017-11-23T13:44:50.119Z,11.67
2017-11-23T13:45:59.961Z,11.51
2017-11-23T13:47:10.106Z,11.48
2017-11-23T13:48:20.197Z,11.38
2017-11-23T13:49:30.042Z,11.51
2017-11-23T13:50:40.154Z,11.46
2017-11-23T13:51:49.977Z,11.51
2017-11-23T13:52:59.852Z,11.49
2017-11-23T13:54:09.938Z,11.45
2017-11-23T13:55:20.034Z,11.42
2017-11-23T13:56:30.140Z,11.39
2017-11-23T13:57:39.958Z,11.31
2017-11-23T13:58:50.102Z,11.45
2017-11-23T14:00:00.199Z,11.41
2017-11-23T14:01:10.034Z,11.38
2017-11-23T14:02:19.882Z,11.45
2017-11-23T14:03:30.454Z,11.42
2017-11-23T14:04:40.373Z,11.31
2017-11-23T14:05:50.466Z,11.26
2017-11-23T14:07:00.570Z,11.26
2017-11-23T14:08:10.376Z,11.28
2017-11-23T14:09:20.480Z,11.38
2017-11-23T14:10:30.376Z,11.31
2017-11-23T14:11:39.920Z,11.34
2017-11-23T14:12:49.771Z,11.2
2017-11-23T14:13:59.347Z,11.24
2017-11-23T14:15:09.448Z,11.15
2017-11-23T14:16:19.302Z,11.15
2017-11-23T14:17:29.418Z,11.06
2017-11-23T14:18:39.239Z,10.88
2017-11-23T14:19:49.359Z,10.9
2017-11-23T14:20:59.466Z,10.85
2017-11-23T14:22:09.339Z,10.76
2017-11-23T14:23:19.440Z,10.8
2017-11-23T14:24:29.539Z,10.77
2017-11-23T14:25:39.377Z,10.66
2017-11-23T14:26:49.461Z,10.66
2017-11-23T14:27:59.559Z,10.57
2017-11-23T14:29:09.643Z,10.57
2017-11-23T14:30:19.469Z,10.55
2017-11-23T14:31:29.298Z,10.52
2017-11-23T14:32:39.109Z,10.47
2017-11-23T14:33:48.922Z,10.54
2017-11-23T14:34:58.742Z,10.51
2017-11-23T14:36:08.566Z,10.49
2017-11-23T14:37:18.416Z,10.49
2017-11-23T14:38:28.501Z,10.42
2017-11-23T14:39:38.395Z,10.38
2017-11-23T14:40:48.520Z,10.39
2017-11-23T14:41:58.617Z,10.44
2017-11-23T14:43:08.721Z,10.39
2017-11-23T14:44:18.822Z,10.42
2017-11-23T14:45:29.034Z,10.36
2017-11-23T14:46:38.861Z,10.33
2017-11-23T14:47:48.948Z,10.38
2017-11-23T14:48:58.750Z,10.31
2017-11-23T14:50:08.586Z,10.38
2017-11-23T14:51:18.727Z,10.21
2017-11-23T14:52:28.809Z,10.18
2017-11-23T14:53:38.638Z,10.17
2017-11-23T14:54:48.454Z,10.08
2017-11-23T14:55:58.547Z,10.07
2017-11-23T14:57:08.441Z,10
2017-11-23T14:58:18.540Z,9.93
2017-11-23T14:59:28.638Z,9.89
2017-11-23T15:00:39.981Z,9.81
2017-11-23T15:01:50.097Z,9.74
2017-11-23T15:03:00.217Z,9.64
2017-11-23T15:04:10.384Z,9.64
2017-11-23T15:05:20.479Z,9.6
2017-11-23T15:06:30.053Z,9.56
2017-11-23T15:07:40.132Z,9.53
2017-11-23T15:08:50.363Z,9.5
2017-11-23T15:10:00.468Z,9.5
2017-11-23T15:11:10.566Z,9.53
2017-11-23T15:12:20.670Z,9.42
2017-11-23T15:13:30.766Z,9.45
2017-11-23T15:14:40.938Z,9.41
2017-11-23T15:15:50.804Z,9.42
2017-11-23T15:17:00.929Z,9.41
2017-11-23T15:18:11.050Z,9.37
2017-11-23T15:19:21.135Z,9.35
2017-11-23T15:20:31.025Z,9.39
2017-11-23T15:21:40.862Z,9.37
2017-11-23T15:22:50.959Z,9.32
2017-11-23T15:24:00.777Z,9.27
2017-11-23T15:25:10.587Z,9.23
2017-11-23T15:26:20.706Z,9.27
2017-11-23T15:27:30.788Z,9.19
2017-11-23T15:28:40.894Z,9.16
2017-11-23T15:29:50.706Z,9.21
2017-11-23T15:31:01.161Z,9.04
2017-11-23T15:32:11.031Z,9.01
2017-11-23T15:33:20.316Z,8.94
2017-11-23T15:34:30.416Z,8.92
2017-11-23T15:35:40.509Z,8.89
2017-11-23T15:36:50.112Z,8.79
2017-11-23T15:37:59.714Z,8.77
2017-11-23T15:39:09.838Z,8.82
2017-11-23T15:40:19.410Z,8.77
2017-11-23T15:41:31.951Z,8.69
2017-11-23T15:42:42.051Z,8.74
2017-11-23T15:43:51.616Z,8.65
2017-11-23T15:45:01.158Z,8.62
2017-11-23T15:46:10.712Z,8.57
2017-11-23T15:47:20.544Z,8.57
2017-11-23T15:48:30.385Z,8.47
2017-11-23T15:49:40.261Z,8.39
2017-11-23T15:50:50.343Z,8.52
2017-11-23T15:52:00.484Z,8.43
2017-11-23T15:53:10.565Z,8.44
2017-11-23T15:54:20.656Z,8.49
2017-11-23T15:55:30.793Z,8.44
2017-11-23T15:56:40.874Z,8.35
2017-11-23T15:57:50.968Z,8.32